.
WxDataArchive / Data Records for 2010-01-28
2010-01-27 January 2010 2010-01-29

Data Records for Thursday, 28 January 2010

Time	Temp	Chill	HIndex	Humid	Dewpt	 Wind 	HiWind	WindDir	Rain 	Barom 
-----	----	-----	------	-----	-----	------	------	-------	-----	----- 
00:00	27.8	27.8	27.8	91	25.5	2	6	270	0.00	30.116 
00:05	27.9	27.9	27.9	91	25.6	2	6	248	0.00	30.116 
00:10	27.9	27.9	27.9	91	25.6	2	6	248	0.00	30.116 
00:15	27.9	27.9	27.9	91	25.6	3	7	248	0.00	30.103 
00:20	27.9	27.9	27.9	91	25.6	2	4	225	0.00	30.103 
00:25	28.1	28.1	28.1	91	25.8	3	7	225	0.00	30.103 
00:30	28.1	28.1	28.1	91	25.8	2	5	248	0.00	30.102 
00:35	28.2	28.2	28.2	91	25.9	3	10	248	0.00	30.102 
00:40	28.2	28.2	28.2	91	25.9	3	6	248	0.00	30.102 
00:45	28.4	28.4	28.4	91	26.1	2	8	270	0.00	30.098 
00:50	28.4	28.4	28.4	91	26.1	2	5	270	0.00	30.098 
00:55	28.5	24.0	28.5	91	26.2	4	9	248	0.00	30.098 
01:00	28.5	24.0	28.5	91	26.2	4	10	248	0.00	30.100 
01:05	28.5	28.5	28.5	91	26.2	3	6	270	0.00	30.100 
01:10	28.5	28.5	28.5	91	26.2	3	9	270	0.00	30.100 
01:15	28.5	28.5	28.5	91	26.2	3	5	270	0.00	30.096 
01:20	28.4	28.4	28.4	91	26.1	3	7	270	0.00	30.096 
01:25	28.4	28.4	28.4	91	26.1	3	6	270	0.00	30.096 
01:30	28.2	28.2	28.2	91	25.9	3	6	270	0.00	30.098 
01:35	27.9	23.3	27.9	91	25.6	4	11	270	0.00	30.098 
01:40	27.8	23.2	27.8	90	25.3	4	10	248	0.00	30.098 
01:45	27.6	23.0	27.6	90	25.1	4	9	248	0.00	30.095 
01:50	27.5	22.9	27.5	89	24.7	4	8	270	0.00	30.095 
01:55	27.2	22.5	27.2	88	24.1	4	7	270	0.00	30.095 
02:00	27.2	27.2	27.2	87	23.9	3	7	248	0.00	30.095 
02:05	27.0	22.3	27.0	87	23.7	4	6	270	0.00	30.095 
02:10	27.0	27.0	27.0	86	23.4	3	9	270	0.00	30.095 
02:15	26.9	26.9	26.9	85	23.0	2	5	270	0.00	30.086 
02:20	26.9	26.9	26.9	85	23.0	3	9	270	0.00	30.086 
02:25	26.7	26.7	26.7	84	22.5	3	11	270	0.00	30.086 
02:30	26.4	26.4	26.4	83	22.0	3	5	248	0.00	30.087 
02:35	26.0	21.1	26.0	80	20.7	4	14	270	0.00	30.087 
02:40	25.6	25.6	25.6	77	19.4	3	6	270	0.00	30.087 
02:45	25.4	25.4	25.4	77	19.2	3	6	270	0.00	30.092 
02:50	25.1	25.1	25.1	77	18.9	3	10	248	0.00	30.092 
02:55	25.0	25.0	25.0	77	18.8	3	5	248	0.00	30.092 
03:00	24.8	24.8	24.8	78	18.9	3	5	270	0.00	30.096 
03:05	24.7	24.7	24.7	77	18.5	3	7	270	0.00	30.096 
03:10	24.2	24.2	24.2	76	17.7	3	7	270	0.00	30.096 
03:15	23.9	18.7	23.9	75	17.2	4	7	270	0.00	30.102 
03:20	23.6	23.6	23.6	75	16.9	3	10	270	0.00	30.102 
03:25	23.3	18.0	23.3	75	16.6	4	7	270	0.00	30.102 
03:30	23.3	23.3	23.3	76	16.9	3	9	270	0.00	30.107 
03:35	23.3	23.3	23.3	76	16.9	3	6	292	0.00	30.107 
03:40	23.0	23.0	23.0	76	16.6	3	6	270	0.00	30.107 
03:45	22.5	22.5	22.5	76	16.1	3	6	270	0.00	30.115 
03:50	22.1	22.1	22.1	75	15.4	3	9	270	0.00	30.115 
03:55	21.6	16.1	21.6	73	14.3	4	9	270	0.00	30.115 
04:00	21.3	15.7	21.3	72	13.7	4	9	270	0.00	30.120 
04:05	20.8	20.8	20.8	71	12.9	3	5	270	0.00	30.120 
04:10	20.5	20.5	20.5	71	12.6	3	6	270	0.00	30.120 
04:15	20.3	20.3	20.3	71	12.4	3	6	270	0.00	30.120 
04:20	20.0	20.0	20.0	70	11.8	2	5	270	0.00	30.120 
04:25	19.9	19.9	19.9	70	11.7	3	5	270	0.00	30.120 
04:30	19.7	19.7	19.7	70	11.5	3	6	270	0.00	30.132 
04:35	19.5	19.5	19.5	71	11.7	2	4	270	0.00	30.132 
04:40	19.4	19.4	19.4	72	11.9	3	6	270	0.00	30.132 
04:45	19.2	19.2	19.2	72	11.7	3	6	270	0.00	30.139 
04:50	18.9	18.9	18.9	72	11.4	3	6	270	0.00	30.139 
04:55	18.6	18.6	18.6	71	10.8	3	5	248	0.00	30.139 
05:00	18.4	18.4	18.4	71	10.6	2	4	270	0.00	30.138 
05:05	18.0	18.0	18.0	70	9.9	2	6	270	0.00	30.138 
05:10	17.8	17.8	17.8	70	9.7	3	6	270	0.00	30.138 
05:15	17.7	17.7	17.7	69	9.3	2	5	270	0.00	30.149 
05:20	17.3	17.3	17.3	68	8.6	3	8	270	0.00	30.149 
05:25	17.3	17.3	17.3	68	8.6	3	7	270	0.00	30.149 
05:30	17.0	17.0	17.0	68	8.3	3	5	248	0.00	30.157 
05:35	16.9	16.9	16.9	68	8.2	3	6	270	0.00	30.157 
05:40	16.7	16.7	16.7	68	8.0	3	6	270	0.00	30.157 
05:45	16.5	10.2	16.5	68	7.8	4	11	270	0.00	30.166 
05:50	16.4	16.4	16.4	68	7.7	2	4	248	0.00	30.166 
05:55	16.2	16.2	16.2	69	7.8	2	7	248	0.00	30.166 
06:00	16.1	16.1	16.1	69	7.8	3	5	270	0.00	30.174 
06:05	15.9	15.9	15.9	69	7.6	3	7	270	0.00	30.174 
06:10	15.7	15.7	15.7	69	7.4	3	5	270	0.00	30.174 
06:15	15.6	15.6	15.6	69	7.3	3	11	248	0.00	30.184 
06:20	15.4	15.4	15.4	69	7.1	3	5	292	0.00	30.184 
06:25	15.2	15.2	15.2	70	7.2	2	5	248	0.00	30.184 
06:30	15.1	15.1	15.1	70	7.1	3	4	270	0.00	30.189 
06:35	15.1	15.1	15.1	70	7.1	3	6	248	0.00	30.189 
06:40	14.8	14.8	14.8	70	6.8	2	4	248	0.00	30.189 
06:45	14.6	14.6	14.6	70	6.6	2	5	270	0.00	30.199 
06:50	14.6	14.6	14.6	70	6.6	2	5	248	0.00	30.199 
06:55	14.4	14.4	14.4	71	6.7	3	7	248	0.00	30.199 
07:00	14.4	14.4	14.4	71	6.7	3	7	270	0.00	30.207 
07:05	14.3	14.3	14.3	71	6.6	3	6	248	0.00	30.207 
07:10	14.3	14.3	14.3	71	6.6	3	6	270	0.00	30.207 
07:15	14.1	14.1	14.1	71	6.5	3	6	270	0.00	30.219 
07:20	14.1	14.1	14.1	72	6.8	3	6	270	0.00	30.219 
07:25	14.1	14.1	14.1	72	6.8	3	6	248	0.00	30.219 
07:30	14.1	14.1	14.1	72	6.8	3	6	270	0.00	30.230 
07:35	14.1	14.1	14.1	72	6.8	3	5	248	0.00	30.230 
07:40	14.0	14.0	14.0	72	6.7	3	6	270	0.00	30.230 
07:45	14.0	14.0	14.0	72	6.7	3	5	270	0.00	30.242 
07:50	13.8	13.8	13.8	72	6.5	3	9	248	0.00	30.242 
07:55	13.8	13.8	13.8	72	6.5	3	5	248	0.00	30.242 
08:00	13.6	13.6	13.6	72	6.3	2	5	248	0.00	30.253 
08:05	13.6	13.6	13.6	72	6.3	3	7	292	0.00	30.253 
08:10	13.5	13.5	13.5	72	6.2	2	6	270	0.00	30.253 
08:15	13.5	13.5	13.5	72	6.2	2	5	270	0.00	30.267 
08:20	13.5	13.5	13.5	72	6.2	2	5	248	0.00	30.267 
08:25	13.5	13.5	13.5	72	6.2	2	4	248	0.00	30.267 
08:30	13.5	13.5	13.5	72	6.2	2	5	270	0.00	30.280 
08:35	13.6	13.6	13.6	72	6.3	2	4	270	0.00	30.280 
08:40	13.6	13.6	13.6	72	6.3	2	5	248	0.00	30.280 
08:45	13.8	13.8	13.8	73	6.8	2	5	248	0.00	30.286 
08:50	13.8	13.8	13.8	72	6.5	2	5	270	0.00	30.286 
08:55	14.0	14.0	14.0	72	6.7	3	9	270	0.00	30.286 
09:00	13.8	13.8	13.8	72	6.5	2	6	270	0.00	30.300 
09:05	14.0	14.0	14.0	72	6.7	2	5	270	0.00	30.300 
09:10	14.3	14.3	14.3	71	6.6	3	6	270	0.00	30.300 
09:15	14.4	14.4	14.4	70	6.4	2	6	270	0.00	30.307 
09:20	14.4	14.4	14.4	70	6.4	3	6	270	0.00	30.307 
09:25	14.6	14.6	14.6	69	6.3	3	6	270	0.00	30.307 
09:30	14.8	14.8	14.8	69	6.5	3	6	270	0.00	30.312 
09:35	14.9	14.9	14.9	68	6.3	3	9	270	0.00	30.312 
09:40	14.9	14.9	14.9	68	6.3	3	6	270	0.00	30.312 
09:45	15.1	15.1	15.1	68	6.5	2	5	270	0.00	30.316 
09:50	15.2	15.2	15.2	67	6.2	3	7	270	0.00	30.316 
09:55	15.2	8.7	15.2	69	6.9	4	9	270	0.00	30.316 
10:00	15.2	15.2	15.2	67	6.2	3	6	270	0.00	30.328 
10:05	15.4	8.9	15.4	67	6.4	4	10	270	0.00	30.328 
10:10	15.4	15.4	15.4	67	6.4	3	6	270	0.00	30.328 
10:15	15.4	8.9	15.4	67	6.4	4	10	270	0.00	30.334 
10:20	15.2	8.7	15.2	67	6.2	4	7	270	0.00	30.334 
10:25	15.4	15.4	15.4	68	6.8	3	6	270	0.00	30.334 
10:30	15.4	15.4	15.4	68	6.8	3	7	270	0.00	30.343 
10:35	15.4	15.4	15.4	68	6.8	3	6	270	0.00	30.343 
10:40	15.7	15.7	15.7	68	7.0	2	5	248	0.00	30.343 
10:45	15.9	15.9	15.9	67	6.9	2	5	270	0.00	30.342 
10:50	16.1	16.1	16.1	67	7.1	2	6	270	0.00	30.342 
10:55	16.1	16.1	16.1	66	6.8	3	7	270	0.00	30.342 
11:00	16.1	16.1	16.1	66	6.8	2	10	248	0.00	30.345 
11:05	16.2	16.2	16.2	66	6.9	3	5	270	0.00	30.345 
11:10	16.4	16.4	16.4	66	7.1	3	6	270	0.00	30.345 
11:15	16.7	16.7	16.7	65	7.0	2	6	315	0.00	30.354 
11:20	17.0	17.0	17.0	65	7.3	2	6	270	0.00	30.354 
11:25	17.0	17.0	17.0	65	7.3	3	7	270	0.00	30.354 
11:30	16.7	16.7	16.7	66	7.3	3	9	292	0.00	30.360 
11:35	16.9	16.9	16.9	67	7.9	2	4	248	0.00	30.360 
11:40	16.9	16.9	16.9	66	7.5	3	6	270	0.00	30.360 
11:45	16.9	16.9	16.9	68	8.2	3	6	270	0.00	30.360 
11:50	16.9	16.9	16.9	67	7.9	2	5	248	0.00	30.360 
11:55	17.0	17.0	17.0	67	8.0	2	4	315	0.00	30.360 
12:00	17.2	17.2	17.2	68	8.5	1	3	315	0.00	30.369 
12:05	17.3	17.3	17.3	69	8.9	2	4	315	0.00	30.369 
12:10	17.0	17.0	17.0	69	8.6	1	4	338	0.00	30.369 
12:15	17.0	17.0	17.0	69	8.6	2	10	270	0.00	30.371 
12:20	16.5	16.5	16.5	70	8.5	3	7	292	0.00	30.371 
12:25	16.4	16.4	16.4	70	8.4	3	6	315	0.00	30.371 
12:30	16.5	16.5	16.5	70	8.5	2	5	270	0.00	30.373 
12:35	16.5	16.5	16.5	67	7.5	3	7	292	0.00	30.373 
12:40	16.7	16.7	16.7	65	7.0	3	6	292	0.00	30.373 
12:45	16.7	16.7	16.7	65	7.0	2	5	248	0.00	30.378 
12:50	16.7	16.7	16.7	65	7.0	2	6	292	0.00	30.378 
12:55	16.7	16.7	16.7	65	7.0	2	7	338	0.00	30.378 
13:00	16.4	16.4	16.4	66	7.1	3	7	292	0.00	30.386 
13:05	16.4	16.4	16.4	67	7.4	3	6	270	0.00	30.386 
13:10	16.4	16.4	16.4	67	7.4	3	6	315	0.00	30.386 
13:15	16.4	16.4	16.4	68	7.7	2	5	338	0.00	30.385 
13:20	16.4	16.4	16.4	70	8.4	2	5	338	0.00	30.385 
13:25	16.5	16.5	16.5	71	8.8	2	5	270	0.00	30.385 
13:30	16.1	16.1	16.1	73	9.0	2	5	292	0.00	30.394 
13:35	15.6	15.6	15.6	74	8.8	3	9	315	0.00	30.394 
13:40	15.4	15.4	15.4	73	8.3	3	10	315	0.00	30.394 
13:45	15.6	15.6	15.6	72	8.2	3	6	315	0.00	30.399 
13:50	15.7	15.7	15.7	72	8.3	2	5	270	0.00	30.399 
13:55	15.7	15.7	15.7	68	7.0	3	7	315	0.00	30.399 
14:00	16.2	16.2	16.2	66	6.9	2	7	292	0.00	30.391 
14:05	16.7	16.7	16.7	64	6.7	2	5	338	0.00	30.391 
14:10	16.9	16.9	16.9	62	6.2	2	6	270	0.00	30.391 
14:15	16.9	16.9	16.9	63	6.5	3	6	270	0.00	30.394 
14:20	16.7	16.7	16.7	65	7.0	2	4	248	0.00	30.394 
14:25	16.7	16.7	16.7	66	7.3	2	4	248	0.00	30.394 
14:30	17.2	17.2	17.2	65	7.5	2	5	270	0.00	30.393 
14:35	18.0	18.0	18.0	63	7.6	2	5	248	0.00	30.393 
14:40	18.0	18.0	18.0	61	6.9	2	10	292	0.00	30.393 
14:45	16.7	16.7	16.7	63	6.3	3	7	338	0.00	30.403 
14:50	16.2	16.2	16.2	62	5.5	2	4	338	0.00	30.403 
14:55	15.9	15.9	15.9	59	4.1	3	10	315	0.00	30.403 
15:00	15.7	15.7	15.7	59	4.0	2	5	315	0.00	30.409 
15:05	16.1	16.1	16.1	59	4.3	2	3	292	0.00	30.409 
15:10	16.4	16.4	16.4	56	3.5	2	6	270	0.00	30.409 
15:15	16.1	16.1	16.1	53	2.0	2	7	315	0.00	30.414 
15:20	15.7	15.7	15.7	55	2.4	3	8	270	0.00	30.414 
15:25	16.1	16.1	16.1	57	3.6	2	5	292	0.00	30.414 
15:30	16.4	16.4	16.4	57	3.9	2	7	315	0.00	30.414 
15:35	16.5	16.5	16.5	56	3.6	2	4	270	0.00	30.414 
15:40	16.1	16.1	16.1	55	2.8	2	5	315	0.00	30.414 
15:45	15.7	15.7	15.7	55	2.4	2	6	338	0.00	30.413 
15:50	15.7	15.7	15.7	54	2.0	2	6	270	0.00	30.413 
15:55	15.9	15.9	15.9	55	2.6	1	4	270	0.00	30.413 
16:00	15.9	15.9	15.9	54	2.2	2	5	338	0.00	30.413 
16:05	15.7	15.7	15.7	54	2.0	2	4	338	0.00	30.413 
16:10	15.6	15.6	15.6	55	2.3	2	6	338	0.00	30.413 
16:15	15.6	15.6	15.6	55	2.3	1	4	315	0.00	30.422 
16:20	15.6	15.6	15.6	55	2.3	1	4	270	0.00	30.422 
16:25	15.7	15.7	15.7	55	2.4	1	3	270	0.00	30.422 
16:30	15.7	15.7	15.7	55	2.4	1	5	315	0.00	30.430 
16:35	15.7	15.7	15.7	53	1.6	2	7	270	0.00	30.430 
16:40	15.6	15.6	15.6	51	0.7	2	4	270	0.00	30.430 
16:45	15.4	15.4	15.4	51	0.5	2	6	338	0.00	30.446 
16:50	15.2	15.2	15.2	52	0.8	2	7	315	0.00	30.446 
16:55	15.2	15.2	15.2	52	0.8	1	3	270	0.00	30.446 
17:00	15.4	15.4	15.4	53	1.4	1	4	315	0.00	30.457 
17:05	15.4	15.4	15.4	55	2.2	1	5	270	0.00	30.457 
17:10	15.4	15.4	15.4	58	3.3	2	4	338	0.00	30.457 
17:15	15.2	15.2	15.2	55	2.0	2	6	315	0.00	30.467 
17:20	15.1	15.1	15.1	54	1.5	2	5	315	0.00	30.467 
17:25	14.9	14.9	14.9	53	0.9	1	4	292	0.00	30.467 
17:30	14.6	14.6	14.6	52	0.2	2	7	270	0.00	30.467 
17:35	14.3	14.3	14.3	53	0.3	1	5	270	0.00	30.467 
17:40	14.1	14.1	14.1	54	0.5	2	4	315	0.00	30.467 
17:45	14.1	14.1	14.1	56	1.3	1	2	315	0.00	30.471 
17:50	14.1	14.1	14.1	57	1.7	1	4	315	0.00	30.471 
17:55	14.0	14.0	14.0	58	2.0	1	3	338	0.00	30.471 
18:00	13.8	13.8	13.8	58	1.8	0	2	315	0.00	30.478 
18:05	13.6	13.6	13.6	58	1.6	1	3	248	0.00	30.478 
18:10	13.5	13.5	13.5	58	1.5	1	3	270	0.00	30.478 
18:15	13.3	13.3	13.3	58	1.3	0	2	270	0.00	30.484 
18:20	13.1	13.1	13.1	59	1.5	0	2	270	0.00	30.484 
18:25	13.3	13.3	13.3	61	2.4	0	2	270	0.00	30.484 
18:30	13.3	13.3	13.3	62	2.7	0	2	270	0.00	30.488 
18:35	13.1	13.1	13.1	62	2.6	1	3	270	0.00	30.488 
18:40	12.9	12.9	12.9	63	2.7	0	2	270	0.00	30.488 
18:45	12.8	12.8	12.8	63	2.6	0	2	270	0.00	30.499 
18:50	12.6	12.6	12.6	64	2.8	0	1	270	0.00	30.499 
18:55	12.4	12.4	12.4	65	2.9	0	1	270	0.00	30.499 
19:00	12.4	12.4	12.4	66	3.2	0	1	270	0.00	30.503 
19:05	12.4	12.4	12.4	67	3.6	0	2	270	0.00	30.503 
19:10	12.4	12.4	12.4	68	3.9	0	2	270	0.00	30.503 
19:15	12.4	12.4	12.4	68	3.9	0	1	270	0.00	30.503 
19:20	12.4	12.4	12.4	68	3.9	0	1	270	0.00	30.503 
19:25	12.4	12.4	12.4	69	4.2	0	1	270	0.00	30.503 
19:30	12.6	12.6	12.6	70	4.7	0	1	270	0.00	30.505 
19:35	12.8	12.8	12.8	71	5.2	0	1	270	0.00	30.505 
19:40	12.8	12.8	12.8	71	5.2	0	2	270	0.00	30.505 
19:45	12.9	12.9	12.9	73	5.9	1	2	270	0.00	30.514 
19:50	12.9	12.9	12.9	73	5.9	0	2	270	0.00	30.514 
19:55	12.8	12.8	12.8	74	6.1	1	2	270	0.00	30.514 
20:00	12.8	12.8	12.8	74	6.1	0	2	270	0.00	30.517 
20:05	12.6	12.6	12.6	74	5.9	0	2	270	0.00	30.517 
20:10	12.4	12.4	12.4	74	5.7	0	3	270	0.00	30.517 
20:15	12.1	12.1	12.1	74	5.4	0	2	270	0.00	30.524 
20:20	11.9	11.9	11.9	75	5.5	0	2	270	0.00	30.524 
20:25	11.7	11.7	11.7	75	5.3	1	2	270	0.00	30.524 
20:30	11.6	11.6	11.6	74	4.9	0	1	270	0.00	30.529 
20:35	11.4	11.4	11.4	75	5.0	0	1	270	0.00	30.529 
20:40	11.4	11.4	11.4	75	5.0	0	2	270	0.00	30.529 
20:45	11.6	11.6	11.6	75	5.2	0	2	270	0.00	30.530 
20:50	11.6	11.6	11.6	75	5.2	0	2	270	0.00	30.530 
20:55	11.4	11.4	11.4	74	4.8	0	1	270	0.00	30.530 
21:00	11.2	11.2	11.2	74	4.6	0	1	270	0.00	30.531 
21:05	11.1	11.1	11.1	74	4.5	0	1	270	0.00	30.531 
21:10	10.9	10.9	10.9	74	4.3	0	1	270	0.00	30.531 
21:15	10.5	10.5	10.5	74	3.9	0	1	270	0.00	30.520 
21:20	10.4	10.4	10.4	74	3.8	0	1	270	0.00	30.520 
21:25	10.4	10.4	10.4	74	3.8	0	2	270	0.00	30.520 
21:30	10.2	10.2	10.2	74	3.6	0	0	---	0.00	30.524 
21:35	9.9	9.9	9.9	74	3.3	0	1	270	0.00	30.524 
21:40	9.7	9.7	9.7	74	3.1	0	0	---	0.00	30.524 
21:45	9.5	9.5	9.5	74	2.9	0	0	---	0.00	30.523 
21:50	9.3	9.3	9.3	75	3.0	0	0	---	0.00	30.523 
21:55	9.2	9.2	9.2	75	2.9	0	0	---	0.00	30.523 
22:00	9.0	9.0	9.0	75	2.7	0	0	---	0.00	30.523 
22:05	8.8	8.8	8.8	76	2.8	0	0	---	0.00	30.523 
22:10	8.6	8.6	8.6	76	2.6	0	0	---	0.00	30.523 
22:15	8.6	8.6	8.6	76	2.6	0	0	---	0.00	30.533 
22:20	9.0	9.0	9.0	77	3.3	0	0	---	0.00	30.533 
22:25	9.3	9.3	9.3	77	3.6	0	0	---	0.00	30.533 
22:30	9.7	9.7	9.7	77	4.0	0	2	270	0.00	30.534 
22:35	10.0	10.0	10.0	76	4.0	0	1	270	0.00	30.534 
22:40	10.4	10.4	10.4	76	4.4	0	1	270	0.00	30.534 
22:45	10.7	10.7	10.7	75	4.4	0	3	338	0.00	30.534 
22:50	11.1	11.1	11.1	74	4.5	1	3	270	0.00	30.534 
22:55	11.4	11.4	11.4	72	4.2	0	3	0	0.00	30.534 
23:00	11.6	11.6	11.6	71	4.0	0	1	0	0.00	30.533 
23:05	11.7	11.7	11.7	71	4.1	0	1	0	0.00	30.533 
23:10	11.7	11.7	11.7	71	4.1	0	1	0	0.00	30.533 
23:15	11.9	11.9	11.9	70	4.0	0	1	0	0.00	30.534 
23:20	11.9	11.9	11.9	70	4.0	0	2	0	0.00	30.534 
23:25	12.1	12.1	12.1	71	4.5	0	1	0	0.00	30.534 
23:30	12.1	12.1	12.1	71	4.5	0	2	0	0.00	30.541 
23:35	12.3	12.3	12.3	70	4.4	0	2	315	0.00	30.541 
23:40	12.3	12.3	12.3	69	4.1	0	2	315	0.00	30.541 
23:45	12.4	12.4	12.4	69	4.2	0	2	315	0.00	30.548 
23:50	12.4	12.4	12.4	69	4.2	0	1	315	0.00	30.548 
23:55	12.4	12.4	12.4	69	4.2	0	2	315	0.00	30.548 

CoCoRaHS
IN-AL-39
A2 Web Hosting
Creative Commons License
GoDaddy
search engine by freefind advanced

loaded 2018-11-20 02:21:58 • last modified 2010-11-18 10:43:29
Privacy PolicyDisclaimer
• wx.awcolley.com is powered by PmWiki v.2002016 •
• all content (unless otherwise noted) © 2018 A W Colley